Time;durP1;ratioP1;P1;durP2;ratioP2;P2;SDS_P1;SDS_P2;PMS_P1;PMS_P2;Temp;Humidity;BMP_temperature;BMP_pressure;BME280_temperature;BME280_humidity;BME280_pressure;Samples;Min_cycle;Max_cycle;Signal;HPM_P1;HPM_P2
2022/12/09 00:02:01;;;;;;;19.95;15.48;;;6.40;99.90;;;;;;4960912;28;20401;-76
2022/12/09 00:04:27;;;;;;;21.63;14.88;;;6.40;99.90;;;;;;4959533;28;20031;-76
2022/12/09 00:06:53;;;;;;;21.27;15.65;;;6.40;99.90;;;;;;4961400;28;20385;-76
2022/12/09 00:09:19;;;;;;;17.10;14.40;;;6.40;99.90;;;;;;4964293;28;20394;-76
2022/12/09 00:11:47;;;;;;;17.63;13.73;;;6.40;99.90;;;;;;4963225;28;20097;-76
2022/12/09 00:14:16;;;;;;;16.35;13.68;;;6.50;99.90;;;;;;4960102;28;20043;-76
2022/12/09 00:16:42;;;;;;;15.38;12.90;;;6.50;99.90;;;;;;4964918;28;20023;-76
2022/12/09 00:19:08;;;;;;;16.48;13.15;;;6.50;99.90;;;;;;4954851;28;20027;-76
2022/12/09 00:21:37;;;;;;;15.00;12.38;;;6.50;99.90;;;;;;4969811;28;20485;-76
2022/12/09 00:24:05;;;;;;;13.30;11.43;;;6.40;99.90;;;;;;4958577;28;20031;-76
2022/12/09 00:26:35;;;;;;;13.90;11.98;;;6.40;99.90;;;;;;4963526;28;20031;-76
2022/12/09 00:29:01;;;;;;;11.73;10.10;;;6.40;99.90;;;;;;4959609;28;20545;-76
2022/12/09 00:31:35;;;;;;;12.15;10.38;;;6.40;99.90;;;;;;4964563;28;20125;-76
2022/12/09 00:34:04;;;;;;;13.13;10.40;;;6.40;99.90;;;;;;4963560;28;20077;-76
2022/12/09 00:36:30;;;;;;;10.88;9.77;;;6.40;99.90;;;;;;4962761;28;20102;-76
2022/12/09 00:38:57;;;;;;;10.90;9.80;;;6.40;99.90;;;;;;4967161;28;20212;-76
2022/12/09 00:41:26;;;;;;;10.48;8.93;;;6.40;99.90;;;;;;4962733;28;20015;-76
2022/12/09 00:43:53;;;;;;;9.65;8.38;;;6.30;99.90;;;;;;4963060;28;20023;-76
2022/12/09 00:46:18;;;;;;;9.07;8.27;;;6.30;99.90;;;;;;4961196;28;20029;-76
2022/12/09 00:48:45;;;;;;;9.40;8.40;;;6.30;99.90;;;;;;4964890;28;20023;-76
2022/12/09 00:51:15;;;;;;;8.55;7.70;;;6.30;99.90;;;;;;4963451;28;20024;-76
2022/12/09 00:53:42;;;;;;;8.68;7.60;;;6.40;99.90;;;;;;4959886;28;20078;-77
2022/12/09 00:56:07;;;;;;;9.23;8.23;;;6.40;99.90;;;;;;4961111;28;20499;-76
2022/12/09 00:58:33;;;;;;;8.77;7.90;;;6.40;99.90;;;;;;4961063;28;20027;-76
2022/12/09 01:00:59;;;;;;;8.05;7.28;;;6.40;99.90;;;;;;4960604;28;20034;-76
2022/12/09 01:03:25;;;;;;;9.05;7.68;;;6.40;99.90;;;;;;4961699;28;20485;-76
2022/12/09 01:05:51;;;;;;;8.65;7.30;;;6.40;99.90;;;;;;4963285;28;20086;-76
2022/12/09 01:08:17;;;;;;;7.85;7.07;;;6.40;99.90;;;;;;4964549;28;20062;-76
2022/12/09 01:10:44;;;;;;;7.72;7.03;;;6.30;99.90;;;;;;4964714;28;20023;-76
2022/12/09 01:13:11;;;;;;;7.57;6.88;;;6.30;99.90;;;;;;4968118;28;20386;-76
2022/12/09 01:15:37;;;;;;;7.80;7.10;;;6.40;99.90;;;;;;4970994;28;20027;-76
2022/12/09 01:18:04;;;;;;;7.50;6.80;;;6.40;99.90;;;;;;4959616;28;20377;-76
2022/12/09 01:20:29;;;;;;;7.00;6.30;;;6.30;99.90;;;;;;4963197;28;20042;-76
2022/12/09 01:22:55;;;;;;;8.55;6.25;;;6.30;99.90;;;;;;4967575;28;20022;-76
2022/12/09 01:25:21;;;;;;;6.75;5.90;;;6.30;99.90;;;;;;4967668;28;20049;-76
2022/12/09 01:27:47;;;;;;;5.85;5.25;;;6.30;99.90;;;;;;4963710;28;20031;-76
2022/12/09 01:30:13;;;;;;;5.97;5.38;;;6.40;99.90;;;;;;4966307;28;20042;-76
2022/12/09 01:32:39;;;;;;;6.38;5.88;;;6.40;99.90;;;;;;4961785;28;20022;-76
2022/12/09 01:35:05;;;;;;;7.75;6.35;;;6.40;99.90;;;;;;4962382;28;20023;-76
2022/12/09 01:37:32;;;;;;;7.25;6.55;;;6.40;99.90;;;;;;4966022;28;20030;-76
2022/12/09 01:39:58;;;;;;;6.72;5.97;;;6.30;99.90;;;;;;4962855;28;20093;-76
2022/12/09 01:42:25;;;;;;;6.80;6.13;;;6.30;99.90;;;;;;4963872;28;20034;-76
2022/12/09 01:45:18;;;;;;;6.75;6.15;;;6.30;99.90;;;;;;4963770;28;20024;-76
2022/12/09 01:47:46;;;;;;;6.72;5.97;;;6.40;99.90;;;;;;4959724;28;20035;-77
2022/12/09 01:50:12;;;;;;;12.13;9.10;;;6.40;99.90;;;;;;4965319;28;20030;-76
2022/12/09 01:52:38;;;;;;;23.30;15.50;;;6.40;99.90;;;;;;4964349;28;20030;-77
2022/12/09 01:55:05;;;;;;;22.88;16.80;;;6.40;99.90;;;;;;4962046;28;20019;-76
2022/12/09 01:57:31;;;;;;;19.55;14.10;;;6.40;99.90;;;;;;4966619;28;20047;-76
2022/12/09 01:59:57;;;;;;;14.52;12.48;;;6.50;99.90;;;;;;4964084;28;20366;-76
2022/12/09 02:02:26;;;;;;;28.90;20.40;;;6.50;99.90;;;;;;4965507;28;20022;-76
2022/12/09 02:04:53;;;;;;;36.50;26.23;;;6.40;99.90;;;;;;4964004;28;20050;-76
2022/12/09 02:07:19;;;;;;;46.58;31.80;;;6.40;99.90;;;;;;4961809;28;20027;-76
2022/12/09 02:09:45;;;;;;;39.28;29.73;;;6.40;99.90;;;;;;4965316;28;20027;-76
2022/12/09 02:12:24;;;;;;;45.45;33.30;;;6.30;99.90;;;;;;4962278;28;20028;-77
2022/12/09 02:15:02;;;;;;;42.55;31.25;;;6.30;99.90;;;;;;4961832;28;20035;-76
2022/12/09 02:17:42;;;;;;;41.00;31.35;;;6.30;99.90;;;;;;4961392;28;20023;-76
2022/12/09 02:20:38;;;;;;;38.10;29.95;;;6.30;99.90;;;;;;4962410;28;20031;-76
2022/12/09 02:23:23;;;;;;;38.47;28.88;;;6.30;99.90;;;;;;4962595;28;20027;-76
2022/12/09 02:25:54;;;;;;;43.03;32.22;;;6.30;99.90;;;;;;4962517;28;20027;-77
2022/12/09 02:28:46;;;;;;;38.75;30.27;;;6.30;99.90;;;;;;4964982;28;20027;-76
2022/12/09 02:31:23;;;;;;;40.72;30.67;;;6.20;99.90;;;;;;4964352;28;20043;-77
2022/12/09 02:34:20;;;;;;;40.40;30.95;;;6.30;99.90;;;;;;4962997;28;20027;-76
2022/12/09 02:37:22;;;;;;;46.30;32.70;;;6.20;99.90;;;;;;4969986;28;20029;-76
2022/12/09 02:40:04;;;;;;;45.33;34.33;;;6.30;99.90;;;;;;4959668;28;20497;-76
2022/12/09 02:42:34;;;;;;;41.17;31.35;;;6.20;99.90;;;;;;4963679;28;20110;-76
2022/12/09 02:45:03;;;;;;;46.17;33.65;;;6.30;99.90;;;;;;4966685;28;20536;-76
2022/12/09 02:47:33;;;;;;;38.33;30.73;;;6.30;99.90;;;;;;4962525;28;20020;-76
2022/12/09 02:50:03;;;;;;;42.22;32.17;;;6.30;99.90;;;;;;4965993;28;20038;-76
2022/12/09 02:52:30;;;;;;;41.00;31.65;;;6.30;99.90;;;;;;4961333;28;20031;-76
2022/12/09 02:54:59;;;;;;;39.13;30.95;;;6.30;99.90;;;;;;4962767;28;20023;-76
2022/12/09 02:57:28;;;;;;;44.00;31.13;;;6.30;99.90;;;;;;4962507;28;20015;-76
2022/12/09 02:59:53;;;;;;;41.90;31.08;;;6.30;99.90;;;;;;4966176;28;20050;-76
2022/12/09 03:02:27;;;;;;;37.92;29.92;;;6.40;99.90;;;;;;4965876;28;20485;-76
2022/12/09 03:05:20;;;;;;;37.35;29.80;;;6.40;99.90;;;;;;4964900;28;20361;-76
2022/12/09 03:08:13;;;;;;;38.30;29.48;;;6.40;99.90;;;;;;4930412;28;20039;-76
2022/12/09 03:10:54;;;;;;;37.60;28.92;;;6.40;99.90;;;;;;4960475;28;20085;-77
2022/12/09 03:13:26;;;;;;;36.47;29.00;;;6.40;99.90;;;;;;4963785;28;20533;-76
2022/12/09 03:15:58;;;;;;;32.63;27.33;;;6.40;99.90;;;;;;4963802;28;20075;-76
2022/12/09 03:18:27;;;;;;;32.30;27.05;;;6.40;99.90;;;;;;4967761;28;20026;-77
2022/12/09 03:20:53;;;;;;;34.42;28.25;;;6.40;99.90;;;;;;4967876;28;20058;-76
2022/12/09 03:23:23;;;;;;;34.08;28.50;;;6.40;99.90;;;;;;4961857;28;20027;-77
2022/12/09 03:25:52;;;;;;;34.60;29.02;;;6.50;99.90;;;;;;4961095;28;20179;-76
2022/12/09 03:28:27;;;;;;;36.13;28.77;;;6.40;99.90;;;;;;4964683;28;20031;-77
2022/12/09 03:30:55;;;;;;;28.85;25.27;;;6.40;99.90;;;;;;4962130;28;20038;-76
2022/12/09 03:33:23;;;;;;;31.40;24.85;;;6.40;99.90;;;;;;4964261;28;20026;-76
2022/12/09 03:35:52;;;;;;;31.10;26.73;;;6.40;99.90;;;;;;4969035;28;20118;-76
2022/12/09 03:38:21;;;;;;;36.55;28.77;;;6.40;99.90;;;;;;4963421;28;20105;-76
2022/12/09 03:40:53;;;;;;;30.70;26.92;;;6.40;99.90;;;;;;4961152;28;20481;-76
2022/12/09 03:43:24;;;;;;;31.20;26.02;;;6.40;99.90;;;;;;4970378;28;20031;-76
2022/12/09 03:45:53;;;;;;;33.23;27.37;;;6.30;99.90;;;;;;4963604;28;20486;-76
2022/12/09 03:48:20;;;;;;;37.58;30.10;;;6.30;99.90;;;;;;4963073;28;20026;-76
2022/12/09 03:50:53;;;;;;;31.02;26.42;;;6.30;99.90;;;;;;4962315;28;20397;-77
2022/12/09 03:53:24;;;;;;;32.38;26.90;;;6.30;99.90;;;;;;4962542;28;20126;-76
2022/12/09 03:55:57;;;;;;;29.52;25.48;;;6.30;99.90;;;;;;4963296;28;20015;-76
2022/12/09 03:58:25;;;;;;;29.48;25.02;;;6.40;99.90;;;;;;4960335;28;20023;-76
2022/12/09 04:00:51;;;;;;;29.73;25.02;;;6.30;99.90;;;;;;4963671;28;20094;-77
2022/12/09 04:03:18;;;;;;;33.83;27.05;;;6.30;99.90;;;;;;4963763;28;20027;-76
2022/12/09 04:05:43;;;;;;;37.22;29.23;;;6.30;99.90;;;;;;4959913;28;20031;-76
2022/12/09 04:08:10;;;;;;;38.97;31.10;;;6.30;99.90;;;;;;4964928;28;20035;-77
2022/12/09 04:10:35;;;;;;;43.25;34.08;;;6.20;99.90;;;;;;4961542;28;20027;-76
2022/12/09 04:13:01;;;;;;;45.47;33.42;;;6.10;99.90;;;;;;4963111;28;20038;-76
2022/12/09 04:15:27;;;;;;;40.20;30.77;;;6.20;99.90;;;;;;4961996;28;20119;-76
2022/12/09 04:17:53;;;;;;;41.55;30.73;;;6.20;99.90;;;;;;4961315;28;20027;-76
2022/12/09 04:20:18;;;;;;;41.65;32.22;;;6.30;99.90;;;;;;4962509;28;20059;-77
2022/12/09 04:22:44;;;;;;;37.83;30.27;;;6.30;99.90;;;;;;4963248;28;20034;-76
2022/12/09 04:25:10;;;;;;;42.65;32.00;;;6.30;99.90;;;;;;4961596;28;20034;-76
2022/12/09 04:27:35;;;;;;;42.25;30.95;;;6.30;99.90;;;;;;4966507;28;20485;-77
2022/12/09 04:30:01;;;;;;;40.05;30.23;;;6.30;99.90;;;;;;4962009;28;20066;-76
2022/12/09 04:32:28;;;;;;;35.90;29.08;;;6.30;99.90;;;;;;4970034;28;20054;-76
2022/12/09 04:34:54;;;;;;;42.08;30.52;;;6.40;99.90;;;;;;4962075;28;20057;-76
2022/12/09 04:37:19;;;;;;;40.50;31.42;;;6.40;99.90;;;;;;4963743;28;20101;-76
2022/12/09 04:39:45;;;;;;;41.05;29.75;;;6.30;99.90;;;;;;4961706;28;20035;-76
2022/12/09 04:42:11;;;;;;;42.17;29.55;;;6.30;99.90;;;;;;4963047;28;20058;-77
2022/12/09 04:44:37;;;;;;;44.60;31.67;;;6.30;99.90;;;;;;4963441;28;20031;-76
2022/12/09 04:47:03;;;;;;;39.17;29.45;;;6.20;99.90;;;;;;4970131;28;20401;-76
2022/12/09 04:49:29;;;;;;;40.95;29.27;;;6.20;99.90;;;;;;4964786;28;20117;-76
2022/12/09 04:51:54;;;;;;;38.05;29.45;;;6.20;99.90;;;;;;4968026;28;20019;-76
2022/12/09 04:54:20;;;;;;;36.53;27.27;;;6.30;99.90;;;;;;4964091;28;20613;-76
2022/12/09 04:56:48;;;;;;;35.42;27.80;;;6.30;99.90;;;;;;4967697;28;20046;-76
2022/12/09 04:59:13;;;;;;;31.38;24.92;;;6.20;99.90;;;;;;4964142;28;20031;-76
2022/12/09 05:01:39;;;;;;;37.97;28.38;;;6.30;99.90;;;;;;4968525;28;20034;-76
2022/12/09 05:04:06;;;;;;;32.50;25.58;;;6.30;99.90;;;;;;4967111;28;20110;-76
2022/12/09 05:06:32;;;;;;;32.80;25.77;;;6.30;99.90;;;;;;4972208;28;20151;-76
2022/12/09 05:08:58;;;;;;;30.83;24.75;;;6.40;99.90;;;;;;4973476;28;20031;-76
2022/12/09 05:11:23;;;;;;;31.23;24.52;;;6.30;99.90;;;;;;4966131;28;20027;-76
2022/12/09 05:13:50;;;;;;;27.25;23.10;;;6.40;99.90;;;;;;4965921;28;20047;-76
2022/12/09 05:16:18;;;;;;;31.33;24.10;;;6.30;99.90;;;;;;4965093;28;20027;-76
2022/12/09 05:18:45;;;;;;;25.90;22.73;;;6.40;99.90;;;;;;4966114;28;20078;-76
2022/12/09 05:21:14;;;;;;;27.98;23.98;;;6.40;99.90;;;;;;4966325;28;20035;-76
2022/12/09 05:23:40;;;;;;;26.73;22.40;;;6.40;99.90;;;;;;4965959;28;20038;-76
2022/12/09 05:26:08;;;;;;;27.42;22.67;;;6.40;99.90;;;;;;4968897;28;20527;-77
2022/12/09 05:28:34;;;;;;;30.27;23.27;;;6.40;99.90;;;;;;4964779;28;20030;-77
2022/12/09 05:31:05;;;;;;;32.50;25.52;;;6.40;99.90;;;;;;4965646;28;20089;-76
2022/12/09 05:33:31;;;;;;;33.20;26.45;;;6.40;99.90;;;;;;4965618;28;20027;-77
2022/12/09 05:35:57;;;;;;;35.63;27.92;;;6.30;99.90;;;;;;4965683;28;20023;-76
2022/12/09 05:38:23;;;;;;;39.30;28.67;;;6.30;99.90;;;;;;4966010;28;20181;-76
2022/12/09 05:40:50;;;;;;;40.22;29.45;;;6.30;99.90;;;;;;4965453;28;20077;-76
2022/12/09 05:43:16;;;;;;;37.05;28.88;;;6.20;99.90;;;;;;4966254;28;20477;-76
2022/12/09 05:45:42;;;;;;;45.92;32.10;;;6.20;99.90;;;;;;4964903;28;20485;-77
2022/12/09 05:48:08;;;;;;;49.17;33.08;;;6.10;99.90;;;;;;4966431;28;20034;-77
2022/12/09 05:50:34;;;;;;;47.28;32.20;;;6.20;99.90;;;;;;4964545;28;20086;-76
2022/12/09 05:53:00;;;;;;;41.22;31.08;;;6.10;99.90;;;;;;4966788;28;20043;-77
2022/12/09 05:55:26;;;;;;;45.15;32.03;;;6.10;99.90;;;;;;4969799;28;20086;-76
2022/12/09 05:57:51;;;;;;;42.58;31.20;;;6.20;99.90;;;;;;4967236;28;20074;-76
2022/12/09 06:00:17;;;;;;;43.67;33.45;;;6.30;99.90;;;;;;4962377;28;20256;-76
2022/12/09 06:02:43;;;;;;;41.30;31.55;;;6.30;99.90;;;;;;4966834;28;20447;-76
2022/12/09 06:05:09;;;;;;;46.50;32.13;;;6.30;99.90;;;;;;4962391;28;20122;-77
2022/12/09 06:07:35;;;;;;;48.05;34.03;;;6.40;99.90;;;;;;4966695;28;20027;-76
2022/12/09 06:10:02;;;;;;;46.90;33.35;;;6.30;99.90;;;;;;4963881;28;20034;-76
2022/12/09 06:12:28;;;;;;;44.95;32.22;;;6.30;99.90;;;;;;4966052;28;20496;-76
2022/12/09 06:14:54;;;;;;;49.53;34.95;;;6.30;99.90;;;;;;4964189;28;20070;-77
2022/12/09 06:17:19;;;;;;;45.60;32.50;;;6.30;99.90;;;;;;4963303;28;20050;-76
2022/12/09 06:19:45;;;;;;;44.38;33.50;;;6.30;99.90;;;;;;4963249;28;20023;-77
2022/12/09 06:22:11;;;;;;;44.17;33.53;;;6.30;99.90;;;;;;4965276;28;20176;-77
2022/12/09 06:24:36;;;;;;;43.53;32.05;;;6.30;99.90;;;;;;4965379;28;20441;-76
2022/12/09 06:27:02;;;;;;;50.00;33.88;;;6.30;99.90;;;;;;4967854;28;20035;-77
2022/12/09 06:29:28;;;;;;;53.10;35.95;;;6.20;99.90;;;;;;4964286;28;20035;-76
2022/12/09 06:31:54;;;;;;;49.30;34.38;;;6.20;99.90;;;;;;4964273;28;20535;-76
2022/12/09 06:34:20;;;;;;;48.45;35.55;;;6.20;99.90;;;;;;4962425;28;20020;-76
2022/12/09 06:36:45;;;;;;;51.83;34.95;;;6.20;99.90;;;;;;4966013;28;20436;-76
2022/12/09 06:39:11;;;;;;;50.67;35.28;;;6.30;99.90;;;;;;4963134;28;20023;-76
2022/12/09 06:41:40;;;;;;;52.08;37.50;;;6.30;99.90;;;;;;4963061;28;20390;-76
2022/12/09 06:44:07;;;;;;;52.22;35.53;;;6.20;99.90;;;;;;4964841;28;20026;-76
2022/12/09 06:46:32;;;;;;;48.00;34.03;;;6.30;99.90;;;;;;4962677;28;20434;-76
2022/12/09 06:48:58;;;;;;;43.67;32.83;;;6.30;99.90;;;;;;4962370;28;20093;-76
2022/12/09 06:51:25;;;;;;;44.22;31.88;;;6.30;99.90;;;;;;4962863;28;20028;-76
2022/12/09 06:53:51;;;;;;;46.75;31.77;;;6.30;99.90;;;;;;4965953;28;20066;-76
2022/12/09 06:56:17;;;;;;;44.45;31.45;;;6.30;99.90;;;;;;4966195;28;20177;-76
2022/12/09 06:58:44;;;;;;;42.17;29.90;;;6.30;99.90;;;;;;4963150;28;20030;-77
2022/12/09 07:01:14;;;;;;;39.95;30.60;;;6.30;99.90;;;;;;4965585;28;20388;-76
2022/12/09 07:03:46;;;;;;;40.70;30.45;;;6.30;99.90;;;;;;4963639;28;20433;-76
2022/12/09 07:06:25;;;;;;;40.70;31.17;;;6.30;99.90;;;;;;4977379;28;20026;-77
2022/12/09 07:08:51;;;;;;;42.63;32.70;;;6.30;99.90;;;;;;4969085;28;20378;-77
2022/12/09 07:11:17;;;;;;;45.30;35.53;;;6.30;99.90;;;;;;4961082;28;20031;-77
2022/12/09 07:13:44;;;;;;;43.97;32.60;;;6.30;99.90;;;;;;4962758;28;20054;-77
2022/12/09 07:16:09;;;;;;;49.20;33.88;;;6.30;99.90;;;;;;4961597;28;20023;-77
2022/12/09 07:18:35;;;;;;;47.58;33.20;;;6.30;99.90;;;;;;4962742;28;20396;-78
2022/12/09 07:21:13;;;;;;;108.53;54.15;;;6.40;99.90;;;;;;4958349;28;20035;-77
2022/12/09 07:23:39;;;;;;;163.82;71.60;;;6.40;99.90;;;;;;4965651;28;20030;-77
2022/12/09 07:26:05;;;;;;;206.30;84.88;;;6.40;99.90;;;;;;4953031;29;20087;-77
2022/12/09 07:28:37;;;;;;;106.00;53.35;;;6.40;99.90;;;;;;4962092;28;20393;-77
2022/12/09 07:31:03;;;;;;;70.15;40.95;;;6.40;99.90;;;;;;4960605;28;20031;-77
2022/12/09 07:33:29;;;;;;;53.55;37.67;;;6.30;99.90;;;;;;4964887;28;20027;-77
2022/12/09 07:35:58;;;;;;;49.28;35.25;;;6.40;99.90;;;;;;4963245;28;20110;-77
2022/12/09 07:38:25;;;;;;;50.08;34.13;;;6.30;99.90;;;;;;4971762;28;20027;-77
2022/12/09 07:40:51;;;;;;;54.92;36.53;;;6.40;99.90;;;;;;4970285;28;20026;-77
2022/12/09 07:43:17;;;;;;;48.45;35.05;;;6.30;99.90;;;;;;4955971;28;20034;-77
2022/12/09 07:45:44;;;;;;;50.78;36.30;;;6.30;99.90;;;;;;4955225;29;20096;-77
2022/12/09 07:48:10;;;;;;;51.92;35.25;;;6.30;99.90;;;;;;4966774;28;20037;-77
2022/12/09 07:50:36;;;;;;;50.80;34.60;;;6.40;99.90;;;;;;4955011;28;20043;-77
2022/12/09 07:53:03;;;;;;;49.28;34.72;;;6.40;99.90;;;;;;4973175;28;20047;-77
2022/12/09 07:55:29;;;;;;;47.00;33.03;;;6.30;99.90;;;;;;4973156;28;20069;-77
2022/12/09 07:57:54;;;;;;;44.97;32.67;;;6.30;99.90;;;;;;4974532;28;20027;-77
2022/12/09 08:00:20;;;;;;;47.63;31.95;;;6.40;99.90;;;;;;4965536;28;20038;-78
2022/12/09 08:02:46;;;;;;;44.83;32.30;;;6.40;99.90;;;;;;4969570;28;20039;-77
2022/12/09 08:05:12;;;;;;;45.78;32.63;;;6.40;99.90;;;;;;4955008;29;20027;-77
2022/12/09 08:07:37;;;;;;;49.88;34.25;;;6.40;99.90;;;;;;4955009;29;20032;-77
2022/12/09 08:10:04;;;;;;;50.38;33.08;;;6.40;99.90;;;;;;4953426;29;20031;-77
2022/12/09 08:12:29;;;;;;;52.65;36.08;;;6.30;99.90;;;;;;4969532;28;20031;-77
2022/12/09 08:14:55;;;;;;;78.95;49.63;;;6.30;99.90;;;;;;4958745;28;20035;-77
2022/12/09 08:17:21;;;;;;;66.15;43.10;;;6.30;99.90;;;;;;4961450;28;20027;-76
2022/12/09 08:19:48;;;;;;;63.17;42.38;;;6.30;99.90;;;;;;4955343;28;20027;-77
2022/12/09 08:22:14;;;;;;;65.65;41.78;;;6.30;99.90;;;;;;4954770;28;20039;-77
2022/12/09 08:24:39;;;;;;;203.60;85.82;;;6.30;99.90;;;;;;4960389;28;20035;-77
2022/12/09 08:27:05;;;;;;;257.25;104.75;;;6.40;99.90;;;;;;4954760;29;20469;-77
2022/12/09 08:29:31;;;;;;;170.52;76.93;;;6.40;99.90;;;;;;4954675;29;20040;-77
2022/12/09 08:31:56;;;;;;;107.90;54.80;;;6.40;99.90;;;;;;4954730;29;20035;-77
2022/12/09 08:34:22;;;;;;;93.38;51.25;;;6.40;99.90;;;;;;4954579;28;20050;-76
2022/12/09 08:36:48;;;;;;;77.60;43.30;;;6.40;99.90;;;;;;4957151;28;20027;-78
2022/12/09 08:39:14;;;;;;;128.93;59.40;;;6.40;99.90;;;;;;4970297;28;20423;-77
2022/12/09 08:41:39;;;;;;;208.63;82.68;;;6.40;99.90;;;;;;4956492;28;20022;-76
2022/12/09 08:44:18;;;;;;;91.70;46.20;;;6.40;99.90;;;;;;4971080;28;20027;-76
2022/12/09 08:46:46;;;;;;;51.33;34.10;;;6.40;99.90;;;;;;4967314;28;20024;-76
2022/12/09 08:49:16;;;;;;;51.67;35.22;;;6.40;99.90;;;;;;4952881;28;20035;-77
2022/12/09 08:51:43;;;;;;;55.65;34.95;;;6.40;99.90;;;;;;4970920;28;20023;-77
2022/12/09 08:54:09;;;;;;;46.78;32.95;;;6.30;99.90;;;;;;4970782;28;20023;-77
2022/12/09 08:56:35;;;;;;;46.75;30.73;;;6.30;99.90;;;;;;4971100;28;20019;-77
2022/12/09 08:59:01;;;;;;;51.97;33.97;;;6.30;99.90;;;;;;4970027;28;20026;-77
2022/12/09 09:01:31;;;;;;;68.63;38.72;;;6.30;99.90;;;;;;4965488;28;20480;-77
2022/12/09 09:03:59;;;;;;;61.40;36.53;;;6.20;99.90;;;;;;4953147;28;20485;-76
2022/12/09 09:06:25;;;;;;;55.38;34.58;;;6.30;99.90;;;;;;4968500;28;20034;-77
2022/12/09 09:08:50;;;;;;;50.05;30.52;;;6.30;99.90;;;;;;4969640;28;20031;-77
2022/12/09 09:11:18;;;;;;;41.97;27.55;;;6.40;99.90;;;;;;4969895;28;20464;-75
2022/12/09 09:13:46;;;;;;;41.10;27.60;;;6.40;99.90;;;;;;4965942;28;20051;-75
2022/12/09 09:16:17;;;;;;;40.00;26.63;;;6.50;99.90;;;;;;4963271;28;20054;-75
2022/12/09 09:18:43;;;;;;;41.08;26.17;;;6.50;99.90;;;;;;4959268;28;20027;-77
2022/12/09 09:21:11;;;;;;;36.47;23.30;;;6.60;99.90;;;;;;4951850;29;20062;-75
2022/12/09 09:23:37;;;;;;;31.67;21.92;;;6.50;99.90;;;;;;4968852;28;20027;-75
2022/12/09 09:26:03;;;;;;;42.75;28.35;;;6.60;99.90;;;;;;4968887;28;20027;-75
2022/12/09 09:28:29;;;;;;;46.45;29.63;;;6.60;99.90;;;;;;4970794;28;20508;-75
2022/12/09 09:31:09;;;;;;;43.38;29.73;;;6.70;99.90;;;;;;4967543;28;20027;-76
2022/12/09 09:33:35;;;;;;;36.60;25.42;;;6.70;99.90;;;;;;4973582;28;20057;-75
2022/12/09 09:36:04;;;;;;;34.67;24.58;;;6.80;99.90;;;;;;4970897;28;20107;-75
2022/12/09 09:38:31;;;;;;;31.23;23.35;;;6.80;99.90;;;;;;4960290;28;20117;-75
2022/12/09 09:40:58;;;;;;;70.93;40.30;;;6.80;99.90;;;;;;4973510;28;20026;-76
2022/12/09 09:43:35;;;;;;;84.80;44.75;;;6.80;99.90;;;;;;4958421;28;20038;-76
2022/12/09 09:46:02;;;;;;;130.35;55.75;;;6.80;99.90;;;;;;4965801;28;20433;-75
2022/12/09 09:48:32;;;;;;;89.57;41.13;;;6.80;99.90;;;;;;4969734;28;20086;-75
2022/12/09 09:51:08;;;;;;;51.88;31.20;;;6.70;99.90;;;;;;4961961;28;20102;-78
2022/12/09 09:53:35;;;;;;;39.05;25.67;;;6.70;99.90;;;;;;4966398;28;20543;-77
2022/12/09 09:56:06;;;;;;;26.95;19.83;;;6.70;99.90;;;;;;4960818;28;20027;-77
2022/12/09 09:59:01;;;;;;;27.40;19.30;;;6.70;99.90;;;;;;4955270;29;20033;-77
2022/12/09 10:01:32;;;;;;;19.50;16.45;;;6.70;99.90;;;;;;4966856;28;20031;-77
2022/12/09 10:04:12;;;;;;;21.60;17.08;;;6.70;99.90;;;;;;4973665;28;20042;-78
2022/12/09 10:06:50;;;;;;;22.67;16.67;;;6.70;99.90;;;;;;4963387;28;20085;-77
2022/12/09 10:09:27;;;;;;;21.55;16.55;;;6.80;99.90;;;;;;4962199;28;20122;-77
2022/12/09 10:12:15;;;;;;;19.95;16.33;;;6.80;99.90;;;;;;4961660;28;20051;-77
2022/12/09 10:14:50;;;;;;;19.30;15.60;;;6.80;99.90;;;;;;4960782;28;20043;-77
2022/12/09 10:17:24;;;;;;;22.27;17.70;;;6.80;99.90;;;;;;4956647;28;20023;-77
2022/12/09 10:19:55;;;;;;;22.17;17.42;;;6.80;99.90;;;;;;4968455;28;20027;-77
2022/12/09 10:22:25;;;;;;;23.50;18.85;;;6.80;99.90;;;;;;4959638;28;20027;-76
2022/12/09 10:25:04;;;;;;;24.33;18.52;;;6.80;99.90;;;;;;4961408;28;20035;-77
2022/12/09 10:27:44;;;;;;;23.38;18.17;;;6.80;99.90;;;;;;4965095;28;20049;-77
2022/12/09 10:30:13;;;;;;;19.75;16.90;;;6.80;99.90;;;;;;4967347;28;20587;-76
2022/12/09 10:32:39;;;;;;;22.15;18.10;;;6.80;99.90;;;;;;4955899;28;20015;-76
2022/12/09 10:35:26;;;;;;;26.77;20.20;;;6.80;99.90;;;;;;4972803;28;20023;-77
2022/12/09 10:37:54;;;;;;;27.35;21.23;;;6.80;99.90;;;;;;4966902;28;20027;-76
2022/12/09 10:40:26;;;;;;;25.40;20.30;;;6.80;99.90;;;;;;4969580;28;20388;-77
2022/12/09 10:45:46;;;;;;;23.92;18.73;;;6.90;99.90;;;;;;4961765;28;20067;-77
2022/12/09 10:48:31;;;;;;;22.70;18.48;;;6.90;99.90;;;;;;4964777;28;20118;-78
2022/12/09 10:51:08;;;;;;;21.88;17.05;;;6.90;99.90;;;;;;4965993;28;20060;-76
2022/12/09 10:53:35;;;;;;;24.48;18.48;;;6.90;99.90;;;;;;4962329;28;20623;-76
2022/12/09 10:56:02;;;;;;;24.88;18.55;;;6.90;99.90;;;;;;4964793;28;20026;-76
2022/12/09 10:58:30;;;;;;;23.27;18.63;;;7.00;99.90;;;;;;4958946;28;20031;-76
2022/12/09 11:01:01;;;;;;;23.83;18.38;;;7.00;99.90;;;;;;4961371;28;20034;-77
2022/12/09 11:03:40;;;;;;;25.98;19.70;;;7.00;99.90;;;;;;4963427;28;20275;-76
2022/12/09 11:06:25;;;;;;;23.98;18.73;;;7.00;99.90;;;;;;4958573;28;20059;-76
2022/12/09 11:08:59;;;;;;;23.02;18.13;;;7.00;99.90;;;;;;4961779;28;20630;-77
2022/12/09 11:11:49;;;;;;;31.83;24.95;;;7.00;99.90;;;;;;4955365;28;20035;-77
2022/12/09 11:14:35;;;;;;;28.15;23.25;;;7.00;99.90;;;;;;4959134;28;20050;-76
2022/12/09 11:17:12;;;;;;;25.80;20.83;;;7.10;99.90;;;;;;4964730;28;20038;-76
2022/12/09 11:19:38;;;;;;;26.02;20.17;;;7.10;99.90;;;;;;4970266;28;20066;-76
2022/12/09 11:22:38;;;;;;;22.73;18.13;;;7.10;99.90;;;;;;4967860;28;20035;-77
2022/12/09 11:25:10;;;;;;;28.85;22.40;;;7.10;99.90;;;;;;4968726;28;20400;-76
2022/12/09 11:27:40;;;;;;;246.90;92.40;;;7.10;99.90;;;;;;4959647;28;20088;-76
2022/12/09 11:30:29;;;;;;;154.15;59.15;;;7.10;99.90;;;;;;4958356;28;20485;-76
2022/12/09 11:33:04;;;;;;;81.85;40.22;;;7.10;99.90;;;;;;4946799;28;20045;-75
2022/12/09 11:35:39;;;;;;;83.30;43.30;;;7.10;99.90;;;;;;4958177;28;20019;-75
2022/12/09 11:38:32;;;;;;;92.05;44.70;;;7.10;99.90;;;;;;4964272;28;20022;-76
2022/12/09 11:41:06;;;;;;;85.55;43.25;;;7.10;99.90;;;;;;4964204;28;20039;-76
2022/12/09 11:43:40;;;;;;;67.53;37.00;;;7.10;99.90;;;;;;4960219;28;20438;-76
2022/12/09 11:46:17;;;;;;;58.33;33.85;;;7.10;99.90;;;;;;4959389;28;20122;-76
2022/12/09 11:48:55;;;;;;;43.75;28.65;;;7.10;99.90;;;;;;4959274;28;20082;-76
2022/12/09 11:51:32;;;;;;;33.10;23.33;;;7.10;99.90;;;;;;4960932;28;20063;-76
2022/12/09 11:54:26;;;;;;;38.83;24.85;;;7.10;99.90;;;;;;4966581;28;20476;-77
2022/12/09 11:56:52;;;;;;;40.55;25.20;;;7.10;99.90;;;;;;4963236;28;20106;-76
2022/12/09 11:59:22;;;;;;;43.17;27.10;;;7.10;99.90;;;;;;4966050;28;20026;-76
2022/12/09 12:01:54;;;;;;;47.28;28.58;;;7.00;99.90;;;;;;4960363;28;20514;-76
2022/12/09 12:04:57;;;;;;;45.38;28.08;;;7.10;99.90;;;;;;4965009;28;20111;-76
2022/12/09 12:07:57;;;;;;;46.78;28.85;;;7.00;99.90;;;;;;4963155;28;20019;-76
2022/12/09 12:10:39;;;;;;;103.78;49.35;;;7.00;99.90;;;;;;4951567;28;20085;-76
2022/12/09 12:13:23;;;;;;;;;;;7.00;99.90;;;;;;4964625;28;20505;-77
2022/12/09 12:16:06;;;;;;;59.28;32.35;;;6.90;99.90;;;;;;4961217;28;19984;-76
2022/12/09 12:18:57;;;;;;;39.97;26.52;;;6.80;99.90;;;;;;4963319;28;20026;-76
2022/12/09 12:22:15;;;;;;;33.15;25.08;;;6.80;99.90;;;;;;4947151;28;20113;-76
2022/12/09 12:24:55;;;;;;;28.58;23.77;;;6.90;99.90;;;;;;4965193;28;20512;-76
2022/12/09 12:27:42;;;;;;;32.58;23.73;;;6.80;99.90;;;;;;4966359;28;20065;-76
2022/12/09 12:30:52;;;;;;;32.90;22.52;;;6.90;99.90;;;;;;4966321;28;20034;-76
2022/12/09 12:33:42;;;;;;;39.88;25.63;;;6.90;99.90;;;;;;4928314;28;20031;-76
2022/12/09 12:36:17;;;;;;;104.63;50.08;;;7.00;99.90;;;;;;4964356;28;20034;-76
2022/12/09 12:39:24;;;;;;;69.10;34.10;;;7.00;99.90;;;;;;4964552;28;20370;-76
2022/12/09 12:42:18;;;;;;;40.03;25.85;;;7.00;99.90;;;;;;4887150;29;20557;-76
2022/12/09 12:48:11;;;;;;;20.60;18.20;;;7.00;99.90;;;;;;4965418;28;20543;-76
2022/12/09 12:51:23;;;;;;;20.40;16.05;;;6.90;99.90;;;;;;4964870;28;20038;-76
2022/12/09 12:53:57;;;;;;;19.58;16.75;;;7.00;99.90;;;;;;4942354;28;20431;-76
2022/12/09 12:56:56;;;;;;;20.25;16.70;;;7.00;99.90;;;;;;4965173;28;20058;-76
2022/12/09 12:59:58;;;;;;;22.67;18.98;;;7.00;99.90;;;;;;4965545;28;20106;-76
2022/12/09 13:02:26;;;;;;;21.52;17.52;;;7.00;99.90;;;;;;4953715;28;20031;-76
2022/12/09 13:05:22;;;;;;;21.88;17.52;;;7.00;99.90;;;;;;4966647;28;20049;-77